PWSweather.com
Personal Weather Stations
Station Observations
SEVNO44
Sevno, PrimskovoSI 1276

SevnoPrimskovoSI 1276

Lat: 45.9796285, Lon: 14.924044999999978

Elevation: 1706.0368

Station Type: WS-2307

Latest ConditionsUpdated 7:20:07 PM GMT+01:01 Tuesday, Nov 12, 2019
Currently Today's Max Today's Min Today's Average
Temperature 43.7°F6.5°C 44.4°F6.9°C 41.0°F5.0°C 42.7°F5.9°C
Dew Point 42.1°F5.6°C 42.8°F6.0°C 39.3°F4.1°C 41.1°F5.1°C
Winds 5.0 mph SSE8.0 kmh SSE 5.0 mph -8.0 kmh - - 0.7 mph 1.1 kmh
Wind Gusts 5.6 mph9.0 kmh 5.6 mph9.0 kmh - -
Humidity 94% 94% 93% 94%
Pressure 29.57 in1001.4 mb 29.85 in1010.8 mb 29.55 in1000.7 mb -
Precipitation - 0.41 in10.4 mm - -
Hour Temp Dew Point Humidity Winds Wind Gusts Pressure Precip Precip Rate Daily Precip Total
07:20 PM 43.7°F6.5°C 42.1°F5.6°C 94% 5.0 mph SSE8.0 kmh SSE 5.6 mph9.0 kmh 29.57 in1001.4 mb 0.02 in0.5 mm 0.00 in0.0 mm 0.41 in10.4 mm
07:15 PM 43.7°F6.5°C 42.1°F5.6°C 94% 5.0 mph SSE8.0 kmh SSE 5.6 mph9.0 kmh 29.57 in1001.4 mb 0.02 in0.5 mm 0.00 in0.0 mm 0.41 in10.4 mm
07:10 PM 43.7°F6.5°C 42.1°F5.6°C 94% 3.1 mph SSE5.0 kmh SSE 5.6 mph9.0 kmh 29.57 in1001.4 mb 0.02 in0.5 mm 0.00 in0.0 mm 0.41 in10.4 mm
07:05 PM 43.7°F6.5°C 42.1°F5.6°C 94% 1.4 mph E2.3 kmh E 2.5 mph4.0 kmh 29.57 in1001.4 mb 0.02 in0.5 mm 0.00 in0.0 mm 0.41 in10.4 mm
07:00 PM 43.7°F6.5°C 42.1°F5.6°C 94% 1.4 mph ESE2.3 kmh ESE 3.1 mph5.0 kmh 29.57 in1001.4 mb 0.02 in0.5 mm 0.00 in0.0 mm 0.41 in10.4 mm
06:55 PM 43.7°F6.5°C 42.1°F5.6°C 94% 1.9 mph SE3.1 kmh SE 3.1 mph5.0 kmh 29.57 in1001.4 mb 0.02 in0.5 mm 0.00 in0.0 mm 0.41 in10.4 mm
06:50 PM 43.5°F6.4°C 41.9°F5.5°C 94% 1.1 mph SE1.8 kmh SE 3.1 mph5.0 kmh 29.57 in1001.4 mb 0.02 in0.5 mm 0.00 in0.0 mm 0.41 in10.4 mm
06:45 PM 43.5°F6.4°C 41.9°F5.5°C 94% 0.5 mph NNE0.8 kmh NNE 2.9 mph4.7 kmh 29.58 in1001.7 mb 0.02 in0.5 mm 0.00 in0.0 mm 0.41 in10.4 mm
06:40 PM 43.5°F6.4°C 41.9°F5.5°C 94% 1.6 mph NW2.6 kmh NW 2.9 mph4.7 kmh 29.57 in1001.4 mb 0.04 in1.0 mm 0.00 in0.0 mm 0.41 in10.4 mm
06:35 PM 43.5°F6.4°C 41.9°F5.5°C 94% 2.0 mph WNW3.2 kmh WNW 2.9 mph4.7 kmh 29.57 in1001.4 mb 0.04 in1.0 mm 0.00 in0.0 mm 0.41 in10.4 mm
06:30 PM 43.5°F6.4°C 41.9°F5.5°C 94% 1.6 mph WNW2.6 kmh WNW 2.0 mph3.2 kmh 29.57 in1001.4 mb 0.04 in1.0 mm 0.00 in0.0 mm 0.41 in10.4 mm
06:25 PM 43.5°F6.4°C 41.9°F5.5°C 94% 1.4 mph SSE2.3 kmh SSE 2.9 mph4.7 kmh 29.56 in1001.0 mb 0.04 in1.0 mm 0.24 in6.1 mm 0.41 in10.4 mm
06:20 PM 43.5°F6.4°C 41.9°F5.5°C 94% 1.3 mph S2.1 kmh S 2.9 mph4.7 kmh 29.57 in1001.4 mb 0.02 in0.5 mm 0.00 in0.0 mm 0.39 in9.9 mm
06:15 PM 43.5°F6.4°C 41.9°F5.5°C 94% 1.9 mph S3.1 kmh S 3.8 mph6.1 kmh 29.57 in1001.4 mb 0.02 in0.5 mm 0.00 in0.0 mm 0.39 in9.9 mm
06:10 PM 43.5°F6.4°C 41.9°F5.5°C 94% 2.2 mph SSW3.5 kmh SSW 3.8 mph6.1 kmh 29.57 in1001.4 mb 0.02 in0.5 mm 0.00 in0.0 mm 0.39 in9.9 mm
06:05 PM 43.5°F6.4°C 41.9°F5.5°C 94% 0.9 mph SW1.4 kmh SW 2.2 mph3.5 kmh 29.56 in1001.0 mb 0.02 in0.5 mm 0.00 in0.0 mm 0.39 in9.9 mm
06:00 PM 43.5°F6.4°C 41.9°F5.5°C 94% Calm Calm -- 29.56 in1001.0 mb 0.02 in0.5 mm 0.00 in0.0 mm 0.39 in9.9 mm
05:55 PM 43.5°F6.4°C 41.9°F5.5°C 94% Calm Calm -- 29.57 in1001.4 mb 0.04 in1.0 mm 0.00 in0.0 mm 0.39 in9.9 mm
05:50 PM 43.5°F6.4°C 41.9°F5.5°C 94% Calm Calm -- 29.57 in1001.4 mb 0.04 in1.0 mm 0.00 in0.0 mm 0.39 in9.9 mm
05:45 PM 43.5°F6.4°C 41.9°F5.5°C 94% Calm Calm -- 29.56 in1001.0 mb 0.04 in1.0 mm 0.24 in6.1 mm 0.39 in9.9 mm
05:40 PM 43.5°F6.4°C 41.9°F5.5°C 94% Calm Calm -- 29.55 in1000.7 mb 0.02 in0.5 mm 0.00 in0.0 mm 0.37 in9.4 mm
05:35 PM 43.5°F6.4°C 41.9°F5.5°C 94% Calm Calm -- 29.56 in1001.0 mb 0.02 in0.5 mm 0.00 in0.0 mm 0.37 in9.4 mm
05:30 PM 43.5°F6.4°C 41.9°F5.5°C 94% Calm Calm -- 29.56 in1001.0 mb 0.02 in0.5 mm 0.00 in0.0 mm 0.37 in9.4 mm
05:25 PM 43.7°F6.5°C 42.1°F5.6°C 94% Calm Calm -- 29.56 in1001.0 mb 0.02 in0.5 mm 0.00 in0.0 mm 0.37 in9.4 mm
05:20 PM 43.7°F6.5°C 42.1°F5.6°C 94% 0.3 mph SSE0.5 kmh SSE 1.3 mph2.1 kmh 29.55 in1000.7 mb 0.04 in1.0 mm 0.00 in0.0 mm 0.37 in9.4 mm
05:15 PM 43.7°F6.5°C 42.1°F5.6°C 94% 0.3 mph SSE0.5 kmh SSE 1.3 mph2.1 kmh 29.56 in1001.0 mb 0.04 in1.0 mm 0.00 in0.0 mm 0.37 in9.4 mm
05:10 PM 43.9°F6.6°C 42.3°F5.7°C 94% 0.4 mph SSE0.6 kmh SSE 2.0 mph3.2 kmh 29.56 in1001.0 mb 0.04 in1.0 mm 0.00 in0.0 mm 0.37 in9.4 mm
05:05 PM 43.9°F6.6°C 42.3°F5.7°C 94% 1.0 mph S1.6 kmh S 2.0 mph3.2 kmh 29.56 in1001.0 mb 0.04 in1.0 mm 0.00 in0.0 mm 0.37 in9.4 mm
05:00 PM 43.9°F6.6°C 42.3°F5.7°C 94% 0.8 mph SSW1.3 kmh SSW 1.8 mph2.9 kmh 29.56 in1001.0 mb 0.04 in1.0 mm 0.02 in0.5 mm 0.37 in9.4 mm
04:55 PM 43.9°F6.6°C 42.3°F5.7°C 94% 0.2 mph SSW0.3 kmh SSW 1.8 mph2.9 kmh 29.56 in1001.0 mb 0.02 in0.5 mm 0.00 in0.0 mm 0.35 in8.9 mm
04:50 PM 43.9°F6.6°C 42.3°F5.7°C 94% Calm Calm -- 29.56 in1001.0 mb 0.02 in0.5 mm 0.00 in0.0 mm 0.35 in8.9 mm
04:45 PM 43.9°F6.6°C 42.3°F5.7°C 94% Calm Calm -- 29.56 in1001.0 mb 0.02 in0.5 mm 0.00 in0.0 mm 0.35 in8.9 mm
04:40 PM 43.9°F6.6°C 42.3°F5.7°C 94% Calm Calm -- 29.56 in1001.0 mb 0.04 in1.0 mm 0.00 in0.0 mm 0.35 in8.9 mm
04:35 PM 44.1°F6.7°C 42.4°F5.8°C 94% Calm Calm -- 29.56 in1001.0 mb 0.04 in1.0 mm 0.00 in0.0 mm 0.35 in8.9 mm
04:30 PM 44.1°F6.7°C 42.4°F5.8°C 94% Calm Calm -- 29.56 in1001.0 mb 0.04 in1.0 mm 0.00 in0.0 mm 0.35 in8.9 mm
04:25 PM 44.1°F6.7°C 42.4°F5.8°C 94% Calm Calm -- 29.56 in1001.0 mb 0.04 in1.0 mm 0.24 in6.1 mm 0.35 in8.9 mm
04:20 PM 44.2°F6.8°C 42.6°F5.9°C 94% Calm Calm -- 29.57 in1001.4 mb 0.02 in0.5 mm 0.00 in0.0 mm 0.33 in8.4 mm
04:15 PM 44.2°F6.8°C 42.6°F5.9°C 94% Calm Calm -- 29.57 in1001.4 mb 0.02 in0.5 mm 0.00 in0.0 mm 0.33 in8.4 mm
04:10 PM 44.1°F6.7°C 42.4°F5.8°C 94% Calm Calm -- 29.58 in1001.7 mb 0.02 in0.5 mm 0.00 in0.0 mm 0.33 in8.4 mm
04:05 PM 44.1°F6.7°C 42.4°F5.8°C 94% 0.3 mph SW0.5 kmh SW 0.9 mph1.4 kmh 29.58 in1001.7 mb 0.02 in0.5 mm 0.00 in0.0 mm 0.33 in8.4 mm
04:00 PM 44.2°F6.8°C 42.6°F5.9°C 94% 0.4 mph SW0.6 kmh SW 0.9 mph1.4 kmh 29.57 in1001.4 mb 0.02 in0.5 mm 0.00 in0.0 mm 0.33 in8.4 mm
03:55 PM 44.2°F6.8°C 42.6°F5.9°C 94% 0.4 mph SE0.6 kmh SE 1.6 mph2.6 kmh 29.57 in1001.4 mb 0.04 in1.0 mm 0.00 in0.0 mm 0.33 in8.4 mm
03:50 PM 44.2°F6.8°C 42.6°F5.9°C 94% 0.6 mph SE1.0 kmh SE 1.6 mph2.6 kmh 29.56 in1001.0 mb 0.04 in1.0 mm 0.00 in0.0 mm 0.33 in8.4 mm
03:45 PM 44.2°F6.8°C 42.6°F5.9°C 94% 0.2 mph S0.3 kmh S 1.1 mph1.8 kmh 29.57 in1001.4 mb 0.04 in1.0 mm 0.24 in6.1 mm 0.33 in8.4 mm
03:40 PM 44.2°F6.8°C 42.6°F5.9°C 94% 1.9 mph SSE3.1 kmh SSE 4.0 mph6.4 kmh 29.57 in1001.4 mb 0.02 in0.5 mm 0.00 in0.0 mm 0.31 in7.9 mm
03:35 PM 44.2°F6.8°C 42.6°F5.9°C 94% 3.2 mph SE5.1 kmh SE 4.0 mph6.4 kmh 29.58 in1001.7 mb 0.02 in0.5 mm 0.00 in0.0 mm 0.31 in7.9 mm
03:30 PM 44.4°F6.9°C 42.8°F6.0°C 94% 2.3 mph SE3.7 kmh SE 4.0 mph6.4 kmh 29.59 in1002.0 mb 0.02 in0.5 mm 0.00 in0.0 mm 0.31 in7.9 mm
03:25 PM 44.4°F6.9°C 42.8°F6.0°C 94% 1.5 mph ESE2.4 kmh ESE 2.0 mph3.2 kmh 29.58 in1001.7 mb 0.02 in0.5 mm 0.00 in0.0 mm 0.31 in7.9 mm
03:20 PM 44.4°F6.9°C 42.8°F6.0°C 94% 0.5 mph ESE0.8 kmh ESE 2.0 mph3.2 kmh 29.59 in1002.0 mb 0.04 in1.0 mm 0.00 in0.0 mm 0.31 in7.9 mm
03:15 PM 44.4°F6.9°C 42.8°F6.0°C 94% 0.9 mph WNW1.4 kmh WNW 2.2 mph3.5 kmh 29.58 in1001.7 mb 0.04 in1.0 mm 0.00 in0.0 mm 0.31 in7.9 mm
03:10 PM 44.4°F6.9°C 42.8°F6.0°C 94% 2.0 mph WNW3.2 kmh WNW 2.2 mph3.5 kmh 29.57 in1001.4 mb 0.06 in1.5 mm 0.00 in0.0 mm 0.31 in7.9 mm
03:05 PM 44.4°F6.9°C 42.8°F6.0°C 94% 2.0 mph WNW3.2 kmh WNW 2.2 mph3.5 kmh 29.57 in1001.4 mb 0.06 in1.5 mm 0.00 in0.0 mm 0.31 in7.9 mm
03:00 PM 44.4°F6.9°C 42.8°F6.0°C 94% 1.0 mph WNW1.6 kmh WNW 2.2 mph3.5 kmh 29.57 in1001.4 mb 0.06 in1.5 mm 0.00 in0.0 mm 0.31 in7.9 mm
02:55 PM 44.4°F6.9°C 42.8°F6.0°C 94% 0.2 mph W0.3 kmh W 0.9 mph1.4 kmh 29.57 in1001.4 mb 0.06 in1.5 mm 0.00 in0.0 mm 0.29 in7.4 mm
02:50 PM 44.4°F6.9°C 42.8°F6.0°C 94% Calm Calm -- 29.57 in1001.4 mb 0.06 in1.5 mm 0.00 in0.0 mm 0.29 in7.4 mm
02:45 PM 44.4°F6.9°C 42.8°F6.0°C 94% Calm Calm -- 29.57 in1001.4 mb 0.08 in2.0 mm 0.00 in0.0 mm 0.29 in7.4 mm
02:40 PM 44.4°F6.9°C 42.8°F6.0°C 94% Calm Calm -- 29.57 in1001.4 mb 0.08 in2.0 mm 0.00 in0.0 mm 0.29 in7.4 mm
02:35 PM 44.4°F6.9°C 42.8°F6.0°C 94% 0.1 mph WSW0.2 kmh WSW 1.1 mph1.8 kmh 29.58 in1001.7 mb 0.08 in2.0 mm 0.00 in0.0 mm 0.29 in7.4 mm
02:30 PM 44.4°F6.9°C 42.8°F6.0°C 94% 0.2 mph WSW0.3 kmh WSW 1.1 mph1.8 kmh 29.59 in1002.0 mb 0.08 in2.0 mm 0.00 in0.0 mm 0.29 in7.4 mm
02:25 PM 44.4°F6.9°C 42.8°F6.0°C 94% 0.1 mph WSW0.2 kmh WSW 1.1 mph1.8 kmh 29.59 in1002.0 mb 0.08 in2.0 mm 0.00 in0.0 mm 0.29 in7.4 mm
02:20 PM 44.4°F6.9°C 42.8°F6.0°C 94% Calm Calm -- 29.59 in1002.0 mb 0.08 in2.0 mm 0.00 in0.0 mm 0.26 in6.6 mm
02:15 PM 44.4°F6.9°C 42.8°F6.0°C 94% Calm Calm -- 29.59 in1002.0 mb 0.08 in2.0 mm 0.00 in0.0 mm 0.24 in6.1 mm
02:10 PM 44.4°F6.9°C 42.8°F6.0°C 94% Calm Calm -- 29.60 in1002.4 mb 0.08 in2.0 mm 0.00 in0.0 mm 0.24 in6.1 mm
02:05 PM 44.4°F6.9°C 42.8°F6.0°C 94% 0.2 mph SSE0.3 kmh SSE 1.6 mph2.6 kmh 29.61 in1002.7 mb 0.10 in2.5 mm 0.00 in0.0 mm 0.24 in6.1 mm
02:00 PM 44.4°F6.9°C 42.8°F6.0°C 94% 0.7 mph SSE1.1 kmh SSE 1.6 mph2.6 kmh 29.62 in1003.0 mb 0.10 in2.5 mm 0.02 in0.5 mm 0.24 in6.1 mm
01:55 PM 44.4°F6.9°C 42.8°F6.0°C 94% 0.5 mph SSE0.8 kmh SSE 1.6 mph2.6 kmh 29.62 in1003.0 mb 0.08 in2.0 mm 0.00 in0.0 mm 0.22 in5.6 mm
01:50 PM 44.4°F6.9°C 42.8°F6.0°C 94% Calm Calm -- 29.62 in1003.0 mb 0.08 in2.0 mm 0.24 in6.1 mm 0.22 in5.6 mm
01:45 PM 44.4°F6.9°C 42.8°F6.0°C 94% 0.2 mph SSW0.3 kmh SSW 1.1 mph1.8 kmh 29.62 in1003.0 mb 0.06 in1.5 mm 0.00 in0.0 mm 0.20 in5.1 mm
01:40 PM 44.4°F6.9°C 42.8°F6.0°C 94% 0.2 mph SSW0.3 kmh SSW 1.1 mph1.8 kmh 29.62 in1003.0 mb 0.08 in2.0 mm 0.00 in0.0 mm 0.20 in5.1 mm
01:35 PM 44.4°F6.9°C 42.8°F6.0°C 94% Calm Calm -- 29.61 in1002.7 mb 0.08 in2.0 mm 0.00 in0.0 mm 0.20 in5.1 mm
01:30 PM 44.4°F6.9°C 42.8°F6.0°C 94% Calm Calm -- 29.61 in1002.7 mb 0.08 in2.0 mm 0.00 in0.0 mm 0.20 in5.1 mm
01:25 PM 44.4°F6.9°C 42.8°F6.0°C 94% Calm Calm -- 29.62 in1003.0 mb 0.08 in2.0 mm 0.24 in6.1 mm 0.20 in5.1 mm
01:20 PM 44.4°F6.9°C 42.8°F6.0°C 94% Calm Calm -- 29.62 in1003.0 mb 0.06 in1.5 mm 0.24 in6.1 mm 0.18 in4.6 mm
01:15 PM 44.4°F6.9°C 42.8°F6.0°C 94% Calm Calm -- 29.63 in1003.4 mb 0.04 in1.0 mm 0.00 in0.0 mm 0.16 in4.1 mm
01:10 PM 44.4°F6.9°C 42.8°F6.0°C 94% Calm Calm -- 29.63 in1003.4 mb 0.04 in1.0 mm 0.24 in6.1 mm 0.16 in4.1 mm
01:05 PM 44.4°F6.9°C 42.8°F6.0°C 94% Calm Calm -- 29.63 in1003.4 mb 0.02 in0.5 mm 0.00 in0.0 mm 0.14 in3.6 mm
01:00 PM 44.4°F6.9°C 42.8°F6.0°C 94% Calm Calm -- 29.63 in1003.4 mb 0.02 in0.5 mm 0.00 in0.0 mm 0.14 in3.6 mm
12:55 PM 44.4°F6.9°C 42.8°F6.0°C 94% 0.1 mph S0.2 kmh S 2.0 mph3.2 kmh 29.63 in1003.4 mb 0.04 in1.0 mm 0.00 in0.0 mm 0.14 in3.6 mm
12:50 PM 44.2°F6.8°C 42.6°F5.9°C 94% 0.9 mph S1.4 kmh S 2.0 mph3.2 kmh 29.63 in1003.4 mb 0.06 in1.5 mm 0.00 in0.0 mm 0.14 in3.6 mm
12:45 PM 44.2°F6.8°C 42.6°F5.9°C 94% 0.8 mph S1.3 kmh S 2.0 mph3.2 kmh 29.63 in1003.4 mb 0.06 in1.5 mm 0.24 in6.1 mm 0.14 in3.6 mm
12:40 PM 44.2°F6.8°C 42.6°F5.9°C 94% 0.2 mph SSW0.3 kmh SSW 0.9 mph1.4 kmh 29.64 in1003.7 mb 0.04 in1.0 mm 0.00 in0.0 mm 0.12 in3.0 mm
12:35 PM 44.2°F6.8°C 42.6°F5.9°C 94% 0.4 mph SSW0.6 kmh SSW 0.9 mph1.4 kmh 29.65 in1004.1 mb 0.04 in1.0 mm 0.00 in0.0 mm 0.12 in3.0 mm
12:30 PM 44.2°F6.8°C 42.6°F5.9°C 94% 0.2 mph SSW0.3 kmh SSW 0.9 mph1.4 kmh 29.64 in1003.7 mb 0.06 in1.5 mm 0.00 in0.0 mm 0.12 in3.0 mm
12:25 PM 44.1°F6.7°C 42.4°F5.8°C 94% 0.1 mph WNW0.2 kmh WNW 2.2 mph3.5 kmh 29.65 in1004.1 mb 0.08 in2.0 mm 0.00 in0.0 mm 0.12 in3.0 mm
12:20 PM 44.1°F6.7°C 42.4°F5.8°C 94% 0.5 mph WNW0.8 kmh WNW 2.2 mph3.5 kmh 29.66 in1004.4 mb 0.08 in2.0 mm 0.00 in0.0 mm 0.12 in3.0 mm
12:15 PM 44.1°F6.7°C 42.4°F5.8°C 94% 0.4 mph WNW0.6 kmh WNW 2.2 mph3.5 kmh 29.65 in1004.1 mb 0.08 in2.0 mm 0.00 in0.0 mm 0.12 in3.0 mm
12:10 PM 43.9°F6.6°C 42.3°F5.7°C 94% 0.3 mph S0.5 kmh S 1.1 mph1.8 kmh 29.66 in1004.4 mb 0.08 in2.0 mm 0.00 in0.0 mm 0.12 in3.0 mm
12:05 PM 43.9°F6.6°C 42.3°F5.7°C 94% 0.4 mph SW0.6 kmh SW 1.1 mph1.8 kmh 29.67 in1004.7 mb 0.08 in2.0 mm 0.00 in0.0 mm 0.12 in3.0 mm
12:00 PM 43.7°F6.5°C 42.1°F5.6°C 94% 0.2 mph WSW0.3 kmh WSW 0.9 mph1.4 kmh 29.68 in1005.1 mb 0.08 in2.0 mm 0.02 in0.5 mm 0.12 in3.0 mm
11:55 AM 43.7°F6.5°C 42.1°F5.6°C 94% Calm Calm -- 29.68 in1005.1 mb 0.06 in1.5 mm 0.24 in6.1 mm 0.10 in2.5 mm
11:50 AM 43.7°F6.5°C 42.1°F5.6°C 94% Calm Calm -- 29.68 in1005.1 mb 0.04 in1.0 mm 0.00 in0.0 mm 0.08 in2.0 mm
11:45 AM 43.7°F6.5°C 42.1°F5.6°C 94% Calm Calm -- 29.68 in1005.1 mb 0.04 in1.0 mm 0.00 in0.0 mm 0.08 in2.0 mm
11:40 AM 43.5°F6.4°C 41.9°F5.5°C 94% Calm Calm 1.1 mph1.8 kmh 29.68 in1005.1 mb 0.04 in1.0 mm 0.00 in0.0 mm 0.08 in2.0 mm
11:35 AM 43.5°F6.4°C 41.9°F5.5°C 94% 0.5 mph WSW0.8 kmh WSW 1.1 mph1.8 kmh 29.68 in1005.1 mb 0.04 in1.0 mm 0.24 in6.1 mm 0.08 in2.0 mm
11:30 AM 43.5°F6.4°C 41.9°F5.5°C 94% 1.0 mph SE1.6 kmh SE 2.7 mph4.3 kmh 29.69 in1005.4 mb 0.02 in0.5 mm 0.24 in6.1 mm 0.06 in1.5 mm
11:25 AM 43.5°F6.4°C 41.9°F5.5°C 94% 0.5 mph E0.8 kmh E 2.7 mph4.3 kmh 29.69 in1005.4 mb 0.00 in0.0 mm 0.00 in0.0 mm 0.04 in1.0 mm
11:20 AM 43.5°F6.4°C 41.9°F5.5°C 94% 0.4 mph ESE0.6 kmh ESE 4.3 mph6.9 kmh 29.69 in1005.4 mb 0.00 in0.0 mm 0.00 in0.0 mm 0.04 in1.0 mm
11:15 AM 43.5°F6.4°C 41.9°F5.5°C 94% 1.8 mph SE2.9 kmh SE 4.3 mph6.9 kmh 29.69 in1005.4 mb 0.00 in0.0 mm 0.00 in0.0 mm 0.04 in1.0 mm
11:10 AM 43.5°F6.4°C 41.9°F5.5°C 94% 1.5 mph SSE2.4 kmh SSE 4.3 mph6.9 kmh 29.69 in1005.4 mb 0.00 in0.0 mm 0.00 in0.0 mm 0.04 in1.0 mm
11:05 AM 43.5°F6.4°C 41.9°F5.5°C 94% 0.1 mph SSE0.2 kmh SSE 2.5 mph4.0 kmh 29.69 in1005.4 mb 0.00 in0.0 mm 0.00 in0.0 mm 0.04 in1.0 mm
11:00 AM 43.5°F6.4°C 41.9°F5.5°C 94% Calm Calm -- 29.69 in1005.4 mb 0.00 in0.0 mm 0.00 in0.0 mm 0.04 in1.0 mm
10:55 AM 43.5°F6.4°C 41.9°F5.5°C 94% 0.1 mph S0.2 kmh S 1.6 mph2.6 kmh 29.69 in1005.4 mb 0.00 in0.0 mm 0.00 in0.0 mm 0.04 in1.0 mm
10:50 AM 43.5°F6.4°C 41.9°F5.5°C 94% 0.9 mph S1.4 kmh S 1.6 mph2.6 kmh 29.69 in1005.4 mb 0.00 in0.0 mm 0.00 in0.0 mm 0.04 in1.0 mm
10:45 AM 43.5°F6.4°C 41.9°F5.5°C 94% 1.6 mph S2.6 kmh S 1.6 mph2.6 kmh 29.70 in1005.8 mb 0.00 in0.0 mm 0.00 in0.0 mm 0.04 in1.0 mm
10:40 AM 43.5°F6.4°C 41.9°F5.5°C 94% 1.6 mph S2.6 kmh S 2.0 mph3.2 kmh 29.70 in1005.8 mb 0.00 in0.0 mm 0.00 in0.0 mm 0.04 in1.0 mm
10:35 AM 43.5°F6.4°C 41.9°F5.5°C 94% 1.0 mph S1.6 kmh S 2.0 mph3.2 kmh 29.70 in1005.8 mb 0.00 in0.0 mm 0.00 in0.0 mm 0.04 in1.0 mm
10:30 AM 43.5°F6.4°C 41.9°F5.5°C 94% 0.2 mph S0.3 kmh S 1.1 mph1.8 kmh 29.70 in1005.8 mb 0.00 in0.0 mm 0.00 in0.0 mm 0.04 in1.0 mm
10:25 AM 43.5°F6.4°C 41.9°F5.5°C 94% Calm Calm -- 29.69 in1005.4 mb 0.00 in0.0 mm 0.00 in0.0 mm 0.04 in1.0 mm
10:20 AM 43.5°F6.4°C 41.9°F5.5°C 94% Calm Calm -- 29.70 in1005.8 mb 0.02 in0.5 mm 0.00 in0.0 mm 0.04 in1.0 mm
10:15 AM 43.5°F6.4°C 41.9°F5.5°C 94% Calm Calm -- 29.70 in1005.8 mb 0.02 in0.5 mm 0.00 in0.0 mm 0.04 in1.0 mm
10:10 AM 43.3°F6.3°C 41.7°F5.4°C 94% Calm Calm -- 29.70 in1005.8 mb 0.02 in0.5 mm 0.00 in0.0 mm 0.04 in1.0 mm
10:05 AM 43.3°F6.3°C 41.7°F5.4°C 94% Calm Calm -- 29.71 in1006.1 mb 0.02 in0.5 mm 0.00 in0.0 mm 0.04 in1.0 mm
10:00 AM 43.0°F6.1°C 41.4°F5.2°C 94% Calm Calm -- 29.70 in1005.8 mb 0.02 in0.5 mm 0.00 in0.0 mm 0.04 in1.0 mm
09:55 AM 43.0°F6.1°C 41.4°F5.2°C 94% Calm Calm -- 29.70 in1005.8 mb 0.02 in0.5 mm 0.00 in0.0 mm 0.04 in1.0 mm
09:50 AM 43.0°F6.1°C 41.4°F5.2°C 94% Calm Calm -- 29.70 in1005.8 mb 0.02 in0.5 mm 0.00 in0.0 mm 0.04 in1.0 mm
09:45 AM 42.8°F6.0°C 41.2°F5.1°C 94% Calm Calm -- 29.71 in1006.1 mb 0.02 in0.5 mm 0.00 in0.0 mm 0.04 in1.0 mm
09:40 AM 42.6°F5.9°C 41.0°F5.0°C 94% 0.3 mph SW0.5 kmh SW 1.8 mph2.9 kmh 29.71 in1006.1 mb 0.02 in0.5 mm 0.00 in0.0 mm 0.04 in1.0 mm
09:35 AM 42.6°F5.9°C 41.0°F5.0°C 94% 1.2 mph W1.9 kmh W 1.8 mph2.9 kmh 29.72 in1006.4 mb 0.02 in0.5 mm 0.00 in0.0 mm 0.04 in1.0 mm
09:30 AM 42.6°F5.9°C 41.0°F5.0°C 94% 1.8 mph WNW2.9 kmh WNW 1.8 mph2.9 kmh 29.73 in1006.8 mb 0.02 in0.5 mm 0.00 in0.0 mm 0.04 in1.0 mm
09:25 AM 42.4°F5.8°C 40.8°F4.9°C 94% 1.6 mph W2.6 kmh W 2.7 mph4.3 kmh 29.73 in1006.8 mb 0.02 in0.5 mm 0.24 in6.1 mm 0.04 in1.0 mm
09:20 AM 42.4°F5.8°C 40.8°F4.9°C 94% 1.5 mph SSE2.4 kmh SSE 2.7 mph4.3 kmh 29.73 in1006.8 mb 0.00 in0.0 mm 0.00 in0.0 mm 0.02 in0.5 mm
09:15 AM 42.4°F5.8°C 40.8°F4.9°C 94% 1.2 mph ESE1.9 kmh ESE 1.6 mph2.6 kmh 29.73 in1006.8 mb 0.00 in0.0 mm 0.00 in0.0 mm 0.02 in0.5 mm
09:10 AM 42.4°F5.8°C 40.8°F4.9°C 94% 0.4 mph ESE0.6 kmh ESE 1.6 mph2.6 kmh 29.73 in1006.8 mb 0.00 in0.0 mm 0.00 in0.0 mm 0.02 in0.5 mm
09:05 AM 42.4°F5.8°C 40.8°F4.9°C 94% Calm Calm -- 29.74 in1007.1 mb 0.00 in0.0 mm 0.00 in0.0 mm 0.02 in0.5 mm
09:00 AM 42.4°F5.8°C 40.8°F4.9°C 94% Calm Calm -- 29.74 in1007.1 mb 0.00 in0.0 mm 0.00 in0.0 mm 0.02 in0.5 mm
08:55 AM 42.3°F5.7°C 40.7°F4.8°C 94% Calm Calm -- 29.74 in1007.1 mb 0.00 in0.0 mm 0.00 in0.0 mm 0.02 in0.5 mm
08:50 AM 42.1°F5.6°C 40.5°F4.7°C 94% 0.2 mph E0.3 kmh E 0.9 mph1.4 kmh 29.74 in1007.1 mb 0.00 in0.0 mm 0.00 in0.0 mm 0.02 in0.5 mm
08:45 AM 42.1°F5.6°C 40.5°F4.7°C 94% 0.2 mph E0.3 kmh E 0.9 mph1.4 kmh 29.73 in1006.8 mb 0.00 in0.0 mm 0.00 in0.0 mm 0.02 in0.5 mm
08:40 AM 42.1°F5.6°C 40.5°F4.7°C 94% Calm Calm -- 29.74 in1007.1 mb 0.00 in0.0 mm 0.00 in0.0 mm 0.02 in0.5 mm
08:35 AM 42.1°F5.6°C 40.5°F4.7°C 94% Calm Calm -- 29.74 in1007.1 mb 0.00 in0.0 mm 0.00 in0.0 mm 0.02 in0.5 mm
08:30 AM 41.9°F5.5°C 40.3°F4.6°C 94% Calm Calm -- 29.75 in1007.5 mb 0.00 in0.0 mm 0.00 in0.0 mm 0.02 in0.5 mm
08:25 AM 41.9°F5.5°C 40.3°F4.6°C 94% 0.2 mph S0.3 kmh S 0.9 mph1.4 kmh 29.75 in1007.5 mb 0.00 in0.0 mm 0.00 in0.0 mm 0.02 in0.5 mm
08:20 AM 41.9°F5.5°C 40.3°F4.6°C 94% 0.8 mph SSE1.3 kmh SSE 2.7 mph4.3 kmh 29.74 in1007.1 mb 0.00 in0.0 mm 0.00 in0.0 mm 0.02 in0.5 mm
08:15 AM 41.7°F5.4°C 40.1°F4.5°C 94% 0.6 mph SSE1.0 kmh SSE 2.7 mph4.3 kmh 29.75 in1007.5 mb 0.00 in0.0 mm 0.00 in0.0 mm 0.02 in0.5 mm
08:10 AM 41.7°F5.4°C 40.1°F4.5°C 94% Calm Calm -- 29.74 in1007.1 mb 0.00 in0.0 mm 0.00 in0.0 mm 0.02 in0.5 mm
08:05 AM 41.7°F5.4°C 40.1°F4.5°C 94% Calm Calm -- 29.75 in1007.5 mb 0.00 in0.0 mm 0.00 in0.0 mm 0.02 in0.5 mm
08:00 AM 41.7°F5.4°C 40.1°F4.5°C 94% Calm Calm -- 29.75 in1007.5 mb 0.00 in0.0 mm 0.00 in0.0 mm 0.02 in0.5 mm
07:55 AM 41.7°F5.4°C 40.1°F4.5°C 94% Calm Calm -- 29.74 in1007.1 mb 0.00 in0.0 mm 0.00 in0.0 mm 0.02 in0.5 mm
07:50 AM 41.7°F5.4°C 40.1°F4.5°C 94% Calm Calm -- 29.75 in1007.5 mb 0.00 in0.0 mm 0.00 in0.0 mm 0.02 in0.5 mm
07:45 AM 41.7°F5.4°C 40.1°F4.5°C 94% Calm Calm -- 29.75 in1007.5 mb 0.00 in0.0 mm 0.00 in0.0 mm 0.02 in0.5 mm
07:40 AM 41.7°F5.4°C 40.1°F4.5°C 94% Calm Calm -- 29.75 in1007.5 mb 0.00 in0.0 mm 0.00 in0.0 mm 0.02 in0.5 mm
07:35 AM 41.5°F5.3°C 39.9°F4.4°C 94% 0.4 mph WNW0.6 kmh WNW 2.0 mph3.2 kmh 29.75 in1007.5 mb 0.00 in0.0 mm 0.00 in0.0 mm 0.02 in0.5 mm
07:30 AM 41.5°F5.3°C 39.9°F4.4°C 94% 1.4 mph ESE2.3 kmh ESE 2.0 mph3.2 kmh 29.75 in1007.5 mb 0.00 in0.0 mm 0.00 in0.0 mm 0.02 in0.5 mm
07:25 AM 41.5°F5.3°C 39.9°F4.4°C 94% 1.9 mph ESE3.1 kmh ESE 2.0 mph3.2 kmh 29.75 in1007.5 mb 0.00 in0.0 mm 0.00 in0.0 mm 0.02 in0.5 mm
07:20 AM 41.5°F5.3°C 39.9°F4.4°C 94% 1.3 mph ESE2.1 kmh ESE 2.0 mph3.2 kmh 29.75 in1007.5 mb 0.00 in0.0 mm 0.00 in0.0 mm 0.02 in0.5 mm
07:15 AM 41.5°F5.3°C 39.9°F4.4°C 94% 0.4 mph ESE0.6 kmh ESE 2.0 mph3.2 kmh 29.75 in1007.5 mb 0.00 in0.0 mm 0.00 in0.0 mm 0.02 in0.5 mm
07:10 AM 41.5°F5.3°C 39.9°F4.4°C 94% 0.1 mph ESE0.2 kmh ESE 2.2 mph3.5 kmh 29.75 in1007.5 mb 0.00 in0.0 mm 0.00 in0.0 mm 0.02 in0.5 mm
07:05 AM 41.5°F5.3°C 39.9°F4.4°C 94% 0.9 mph ESE1.4 kmh ESE 2.2 mph3.5 kmh 29.75 in1007.5 mb 0.00 in0.0 mm 0.00 in0.0 mm 0.02 in0.5 mm
07:00 AM 41.5°F5.3°C 39.9°F4.4°C 94% 0.9 mph ESE1.4 kmh ESE 2.2 mph3.5 kmh 29.75 in1007.5 mb 0.00 in0.0 mm 0.00 in0.0 mm 0.02 in0.5 mm
06:55 AM 41.5°F5.3°C 39.9°F4.4°C 94% Calm Calm -- 29.76 in1007.8 mb 0.00 in0.0 mm 0.00 in0.0 mm 0.02 in0.5 mm
06:50 AM 41.5°F5.3°C 39.9°F4.4°C 94% Calm Calm -- 29.75 in1007.5 mb 0.00 in0.0 mm 0.00 in0.0 mm 0.02 in0.5 mm
06:45 AM 41.5°F5.3°C 39.9°F4.4°C 94% Calm Calm -- 29.75 in1007.5 mb 0.00 in0.0 mm 0.00 in0.0 mm 0.02 in0.5 mm
06:40 AM 41.4°F5.2°C 39.8°F4.3°C 94% Calm Calm -- 29.75 in1007.5 mb 0.00 in0.0 mm 0.00 in0.0 mm 0.02 in0.5 mm
06:35 AM 41.4°F5.2°C 39.8°F4.3°C 94% 0.1 mph ESE0.2 kmh ESE 1.6 mph2.6 kmh 29.75 in1007.5 mb 0.00 in0.0 mm 0.00 in0.0 mm 0.02 in0.5 mm
06:25 AM 41.4°F5.2°C 39.8°F4.3°C 94% 0.2 mph ESE0.3 kmh ESE 1.6 mph2.6 kmh 29.75 in1007.5 mb 0.00 in0.0 mm 0.00 in0.0 mm 0.02 in0.5 mm
06:20 AM 41.4°F5.2°C 39.8°F4.3°C 94% 0.9 mph E1.4 kmh E 3.1 mph5.0 kmh 29.76 in1007.8 mb 0.00 in0.0 mm 0.00 in0.0 mm 0.02 in0.5 mm
06:15 AM 41.4°F5.2°C 39.8°F4.3°C 94% 2.1 mph E3.4 kmh E 3.1 mph5.0 kmh 29.76 in1007.8 mb 0.00 in0.0 mm 0.00 in0.0 mm 0.02 in0.5 mm
06:10 AM 41.2°F5.1°C 39.6°F4.2°C 94% 2.2 mph E3.5 kmh E 3.1 mph5.0 kmh 29.76 in1007.8 mb 0.00 in0.0 mm 0.00 in0.0 mm 0.02 in0.5 mm
06:05 AM 41.2°F5.1°C 39.6°F4.2°C 94% 1.0 mph E1.6 kmh E 2.0 mph3.2 kmh 29.76 in1007.8 mb 0.00 in0.0 mm 0.00 in0.0 mm 0.02 in0.5 mm
06:00 AM 41.2°F5.1°C 39.6°F4.2°C 94% 0.2 mph SSW0.3 kmh SSW 1.1 mph1.8 kmh 29.76 in1007.8 mb 0.00 in0.0 mm 0.00 in0.0 mm 0.02 in0.5 mm
05:55 AM 41.2°F5.1°C 39.6°F4.2°C 94% 0.7 mph SSW1.1 kmh SSW 1.1 mph1.8 kmh 29.76 in1007.8 mb 0.00 in0.0 mm 0.00 in0.0 mm 0.02 in0.5 mm
05:50 AM 41.2°F5.1°C 39.6°F4.2°C 94% 0.5 mph SSW0.8 kmh SSW 1.1 mph1.8 kmh 29.76 in1007.8 mb 0.00 in0.0 mm 0.00 in0.0 mm 0.02 in0.5 mm
05:45 AM 41.2°F5.1°C 39.6°F4.2°C 94% Calm Calm -- 29.76 in1007.8 mb 0.00 in0.0 mm 0.00 in0.0 mm 0.02 in0.5 mm
05:40 AM 41.2°F5.1°C 39.6°F4.2°C 94% 0.2 mph S0.3 kmh S 1.1 mph1.8 kmh 29.76 in1007.8 mb 0.00 in0.0 mm 0.00 in0.0 mm 0.02 in0.5 mm
05:35 AM 41.2°F5.1°C 39.6°F4.2°C 94% 0.7 mph SSW1.1 kmh SSW 1.6 mph2.6 kmh 29.76 in1007.8 mb 0.00 in0.0 mm 0.00 in0.0 mm 0.02 in0.5 mm
05:30 AM 41.2°F5.1°C 39.6°F4.2°C 94% 1.2 mph SW1.9 kmh SW 1.6 mph2.6 kmh 29.76 in1007.8 mb 0.00 in0.0 mm 0.00 in0.0 mm 0.02 in0.5 mm
05:25 AM 41.2°F5.1°C 39.6°F4.2°C 94% 1.2 mph SW1.9 kmh SW 1.6 mph2.6 kmh 29.76 in1007.8 mb 0.00 in0.0 mm 0.00 in0.0 mm 0.02 in0.5 mm
05:20 AM 41.2°F5.1°C 39.6°F4.2°C 94% 0.9 mph SW1.4 kmh SW 1.8 mph2.9 kmh 29.76 in1007.8 mb 0.00 in0.0 mm 0.00 in0.0 mm 0.02 in0.5 mm
05:15 AM 41.2°F5.1°C 39.6°F4.2°C 94% 0.6 mph WSW1.0 kmh WSW 1.8 mph2.9 kmh 29.76 in1007.8 mb 0.00 in0.0 mm 0.00 in0.0 mm 0.02 in0.5 mm
05:10 AM 41.2°F5.1°C 39.6°F4.2°C 94% 0.3 mph S0.5 kmh S 0.9 mph1.4 kmh 29.76 in1007.8 mb 0.00 in0.0 mm 0.00 in0.0 mm 0.02 in0.5 mm
05:05 AM 41.2°F5.1°C 39.6°F4.2°C 94% 0.2 mph SE0.3 kmh SE 0.9 mph1.4 kmh 29.77 in1008.1 mb 0.00 in0.0 mm 0.00 in0.0 mm 0.02 in0.5 mm
05:00 AM 41.0°F5.0°C 39.4°F4.1°C 94% Calm Calm -- 29.78 in1008.5 mb 0.00 in0.0 mm 0.00 in0.0 mm 0.02 in0.5 mm
04:55 AM 41.0°F5.0°C 39.4°F4.1°C 94% Calm Calm -- 29.78 in1008.5 mb 0.00 in0.0 mm 0.00 in0.0 mm 0.02 in0.5 mm
04:50 AM 41.2°F5.1°C 39.6°F4.2°C 94% 0.2 mph SE0.3 kmh SE 2.2 mph3.5 kmh 29.78 in1008.5 mb 0.00 in0.0 mm 0.00 in0.0 mm 0.02 in0.5 mm
04:45 AM 41.0°F5.0°C 39.4°F4.1°C 94% 1.3 mph SE2.1 kmh SE 2.2 mph3.5 kmh 29.78 in1008.5 mb 0.00 in0.0 mm 0.00 in0.0 mm 0.02 in0.5 mm
04:40 AM 41.0°F5.0°C 39.4°F4.1°C 94% 1.3 mph SE2.1 kmh SE 2.2 mph3.5 kmh 29.78 in1008.5 mb 0.00 in0.0 mm 0.00 in0.0 mm 0.02 in0.5 mm
04:35 AM 41.2°F5.1°C 39.6°F4.2°C 94% 0.2 mph SSE0.3 kmh SSE 2.2 mph3.5 kmh 29.78 in1008.5 mb 0.00 in0.0 mm 0.00 in0.0 mm 0.02 in0.5 mm
04:30 AM 41.2°F5.1°C 39.6°F4.2°C 94% Calm Calm -- 29.78 in1008.5 mb 0.00 in0.0 mm 0.00 in0.0 mm 0.02 in0.5 mm
04:25 AM 41.2°F5.1°C 39.6°F4.2°C 94% 0.3 mph ENE0.5 kmh ENE 0.7 mph1.1 kmh 29.78 in1008.5 mb 0.00 in0.0 mm 0.00 in0.0 mm 0.02 in0.5 mm
04:20 AM 41.2°F5.1°C 39.6°F4.2°C 94% 0.8 mph NE1.3 kmh NE 2.2 mph3.5 kmh 29.79 in1008.8 mb 0.00 in0.0 mm 0.00 in0.0 mm 0.02 in0.5 mm
04:15 AM 41.2°F5.1°C 39.6°F4.2°C 94% 0.5 mph NNE0.8 kmh NNE 2.2 mph3.5 kmh 29.79 in1008.8 mb 0.00 in0.0 mm 0.00 in0.0 mm 0.02 in0.5 mm
04:10 AM 41.2°F5.1°C 39.3°F4.1°C 93% 1.5 mph E2.4 kmh E 4.5 mph7.2 kmh 29.79 in1008.8 mb 0.00 in0.0 mm 0.00 in0.0 mm 0.02 in0.5 mm
04:05 AM 41.2°F5.1°C 39.3°F4.1°C 93% 2.2 mph SE3.5 kmh SE 4.5 mph7.2 kmh 29.78 in1008.5 mb 0.00 in0.0 mm 0.00 in0.0 mm 0.02 in0.5 mm
04:00 AM 41.2°F5.1°C 39.3°F4.1°C 93% 1.6 mph SSW2.6 kmh SSW 2.9 mph4.7 kmh 29.79 in1008.8 mb 0.00 in0.0 mm 0.00 in0.0 mm 0.02 in0.5 mm
03:55 AM 41.2°F5.1°C 39.3°F4.1°C 93% 1.5 mph SSW2.4 kmh SSW 2.2 mph3.5 kmh 29.80 in1009.1 mb 0.00 in0.0 mm 0.00 in0.0 mm 0.02 in0.5 mm
03:50 AM 41.2°F5.1°C 39.3°F4.1°C 93% 1.6 mph S2.6 kmh S 2.5 mph4.0 kmh 29.79 in1008.8 mb 0.00 in0.0 mm 0.00 in0.0 mm 0.02 in0.5 mm
03:45 AM 41.2°F5.1°C 39.3°F4.1°C 93% 1.1 mph S1.8 kmh S 2.5 mph4.0 kmh 29.79 in1008.8 mb 0.00 in0.0 mm 0.00 in0.0 mm 0.02 in0.5 mm
03:40 AM 41.2°F5.1°C 39.3°F4.1°C 93% Calm Calm -- 29.79 in1008.8 mb 0.02 in0.5 mm 0.00 in0.0 mm 0.02 in0.5 mm
03:35 AM 41.2°F5.1°C 39.3°F4.1°C 93% 0.3 mph SSE0.5 kmh SSE 5.4 mph8.7 kmh 29.79 in1008.8 mb 0.02 in0.5 mm 0.00 in0.0 mm 0.02 in0.5 mm
03:30 AM 41.2°F5.1°C 39.3°F4.1°C 93% 2.2 mph S3.5 kmh S 5.4 mph8.7 kmh 29.80 in1009.1 mb 0.02 in0.5 mm 0.00 in0.0 mm 0.02 in0.5 mm
03:25 AM 41.4°F5.2°C 39.5°F4.2°C 93% 3.5 mph S5.6 kmh S 5.4 mph8.7 kmh 29.80 in1009.1 mb 0.02 in0.5 mm 0.00 in0.0 mm 0.02 in0.5 mm
03:20 AM 41.4°F5.2°C 39.5°F4.2°C 93% 2.0 mph SE3.2 kmh SE 5.1 mph8.2 kmh 29.80 in1009.1 mb 0.02 in0.5 mm 0.00 in0.0 mm 0.02 in0.5 mm
03:15 AM 41.4°F5.2°C 39.5°F4.2°C 93% 1.3 mph E2.1 kmh E 2.0 mph3.2 kmh 29.79 in1008.8 mb 0.02 in0.5 mm 0.00 in0.0 mm 0.02 in0.5 mm
03:10 AM 41.4°F5.2°C 39.5°F4.2°C 93% 1.8 mph E2.9 kmh E 4.7 mph7.6 kmh 29.80 in1009.1 mb 0.02 in0.5 mm 0.00 in0.0 mm 0.02 in0.5 mm
03:05 AM 41.4°F5.2°C 39.5°F4.2°C 93% 2.1 mph SE3.4 kmh SE 4.7 mph7.6 kmh 29.80 in1009.1 mb 0.02 in0.5 mm 0.00 in0.0 mm 0.02 in0.5 mm
03:00 AM 41.4°F5.2°C 39.5°F4.2°C 93% 2.2 mph SE3.5 kmh SE 4.7 mph7.6 kmh 29.80 in1009.1 mb 0.02 in0.5 mm 0.00 in0.0 mm 0.02 in0.5 mm
02:55 AM 41.4°F5.2°C 39.5°F4.2°C 93% 2.1 mph SE3.4 kmh SE 2.9 mph4.7 kmh 29.80 in1009.1 mb 0.02 in0.5 mm 0.00 in0.0 mm 0.02 in0.5 mm
02:50 AM 41.4°F5.2°C 39.5°F4.2°C 93% 1.0 mph SSE1.6 kmh SSE 2.0 mph3.2 kmh 29.80 in1009.1 mb 0.02 in0.5 mm 0.00 in0.0 mm 0.02 in0.5 mm
02:45 AM 41.4°F5.2°C 39.5°F4.2°C 93% 0.3 mph WNW0.5 kmh WNW 1.6 mph2.6 kmh 29.80 in1009.1 mb 0.02 in0.5 mm 0.24 in6.1 mm 0.02 in0.5 mm
02:40 AM 41.4°F5.2°C 39.5°F4.2°C 93% 0.4 mph WNW0.6 kmh WNW 0.9 mph1.4 kmh 29.80 in1009.1 mb 0.00 in0.0 mm 0.00 in0.0 mm 0.00 in0.0 mm
02:35 AM 41.4°F5.2°C 39.5°F4.2°C 93% 0.9 mph SSE1.4 kmh SSE 1.8 mph2.9 kmh 29.80 in1009.1 mb 0.00 in0.0 mm 0.00 in0.0 mm 0.00 in0.0 mm
02:30 AM 41.4°F5.2°C 39.5°F4.2°C 93% 1.4 mph SE2.3 kmh SE 1.8 mph2.9 kmh 29.80 in1009.1 mb 0.00 in0.0 mm 0.00 in0.0 mm 0.00 in0.0 mm
02:25 AM 41.4°F5.2°C 39.5°F4.2°C 93% 1.1 mph ESE1.8 kmh ESE 1.1 mph1.8 kmh 29.80 in1009.1 mb 0.00 in0.0 mm 0.00 in0.0 mm 0.00 in0.0 mm
02:20 AM 41.5°F5.3°C 39.7°F4.3°C 93% 1.3 mph E2.1 kmh E 3.8 mph6.1 kmh 29.80 in1009.1 mb 0.00 in0.0 mm 0.00 in0.0 mm 0.00 in0.0 mm
02:15 AM 41.5°F5.3°C 39.7°F4.3°C 93% 2.4 mph NE3.9 kmh NE 3.8 mph6.1 kmh 29.80 in1009.1 mb 0.00 in0.0 mm 0.00 in0.0 mm 0.00 in0.0 mm
02:10 AM 41.5°F5.3°C 39.7°F4.3°C 93% 2.6 mph NE4.2 kmh NE 3.8 mph6.1 kmh 29.81 in1009.5 mb 0.00 in0.0 mm 0.00 in0.0 mm 0.00 in0.0 mm
02:05 AM 41.5°F5.3°C 39.7°F4.3°C 93% 1.3 mph E2.1 kmh E 1.9 mph3.1 kmh 29.82 in1009.8 mb 0.00 in0.0 mm 0.00 in0.0 mm 0.00 in0.0 mm
02:00 AM 41.5°F5.3°C 39.7°F4.3°C 93% 0.9 mph SE1.4 kmh SE 1.6 mph2.6 kmh 29.82 in1009.8 mb 0.00 in0.0 mm 0.00 in0.0 mm 0.00 in0.0 mm
01:55 AM 41.5°F5.3°C 39.7°F4.3°C 93% 0.2 mph SE0.3 kmh SE 1.3 mph2.1 kmh 29.81 in1009.5 mb 0.00 in0.0 mm 0.00 in0.0 mm 0.00 in0.0 mm
01:50 AM 41.5°F5.3°C 39.7°F4.3°C 93% 0.4 mph ENE0.6 kmh ENE 1.1 mph1.8 kmh 29.81 in1009.5 mb 0.00 in0.0 mm 0.00 in0.0 mm 0.00 in0.0 mm
01:45 AM 41.5°F5.3°C 39.7°F4.3°C 93% 0.8 mph SE1.3 kmh SE 2.5 mph4.0 kmh 29.81 in1009.5 mb 0.00 in0.0 mm 0.00 in0.0 mm 0.00 in0.0 mm
01:40 AM 41.5°F5.3°C 39.7°F4.3°C 93% 0.5 mph S0.8 kmh S 2.5 mph4.0 kmh 29.82 in1009.8 mb 0.00 in0.0 mm 0.00 in0.0 mm 0.00 in0.0 mm
01:35 AM 41.5°F5.3°C 39.7°F4.3°C 93% 0.3 mph S0.5 kmh S 2.5 mph4.0 kmh 29.82 in1009.8 mb 0.00 in0.0 mm 0.00 in0.0 mm 0.00 in0.0 mm
01:30 AM 41.5°F5.3°C 39.7°F4.3°C 93% 0.6 mph S1.0 kmh S 1.6 mph2.6 kmh 29.82 in1009.8 mb 0.00 in0.0 mm 0.00 in0.0 mm 0.00 in0.0 mm
01:25 AM 41.5°F5.3°C 39.7°F4.3°C 93% 0.5 mph S0.8 kmh S 1.6 mph2.6 kmh 29.83 in1010.2 mb 0.00 in0.0 mm 0.00 in0.0 mm 0.00 in0.0 mm
01:20 AM 41.5°F5.3°C 39.7°F4.3°C 93% 0.2 mph SSE0.3 kmh SSE 2.9 mph4.7 kmh 29.83 in1010.2 mb 0.00 in0.0 mm 0.00 in0.0 mm 0.00 in0.0 mm
01:15 AM 41.5°F5.3°C 39.7°F4.3°C 93% 1.4 mph SSE2.3 kmh SSE 2.9 mph4.7 kmh 29.83 in1010.2 mb 0.00 in0.0 mm 0.00 in0.0 mm 0.00 in0.0 mm
01:10 AM 41.5°F5.3°C 39.7°F4.3°C 93% 2.3 mph SSE3.7 kmh SSE 2.9 mph4.7 kmh 29.83 in1010.2 mb 0.00 in0.0 mm 0.00 in0.0 mm 0.00 in0.0 mm
01:05 AM 41.5°F5.3°C 39.7°F4.3°C 93% 2.4 mph SSE3.9 kmh SSE 2.7 mph4.3 kmh 29.83 in1010.2 mb 0.00 in0.0 mm 0.00 in0.0 mm 0.00 in0.0 mm
01:00 AM 41.7°F5.4°C 39.8°F4.3°C 93% 2.7 mph SSE4.3 kmh SSE 2.7 mph4.3 kmh 29.83 in1010.2 mb 0.00 in0.0 mm 0.00 in0.0 mm 0.00 in0.0 mm
12:55 AM 41.7°F5.4°C 39.8°F4.3°C 93% 2.5 mph SSE4.0 kmh SSE 2.7 mph4.3 kmh 29.83 in1010.2 mb 0.00 in0.0 mm 0.00 in0.0 mm 0.00 in0.0 mm
12:50 AM 41.7°F5.4°C 39.8°F4.3°C 93% 1.8 mph SE2.9 kmh SE 2.7 mph4.3 kmh 29.84 in1010.5 mb 0.00 in0.0 mm 0.00 in0.0 mm 0.00 in0.0 mm
12:45 AM 41.7°F5.4°C 39.8°F4.3°C 93% 0.9 mph NE1.4 kmh NE 2.7 mph4.3 kmh 29.84 in1010.5 mb 0.00 in0.0 mm 0.00 in0.0 mm 0.00 in0.0 mm
12:40 AM 41.7°F5.4°C 39.8°F4.3°C 93% 0.2 mph S0.3 kmh S 1.3 mph2.1 kmh 29.84 in1010.5 mb 0.00 in0.0 mm 0.00 in0.0 mm 0.00 in0.0 mm
12:35 AM 41.7°F5.4°C 39.8°F4.3°C 93% Calm Calm -- 29.84 in1010.5 mb 0.00 in0.0 mm 0.00 in0.0 mm 0.00 in0.0 mm
12:30 AM 41.7°F5.4°C 39.8°F4.3°C 93% Calm Calm -- 29.84 in1010.5 mb 0.00 in0.0 mm 0.00 in0.0 mm 0.00 in0.0 mm
12:25 AM 41.7°F5.4°C 39.8°F4.3°C 93% 0.2 mph SSE0.3 kmh SSE 0.9 mph1.4 kmh 29.85 in1010.8 mb 0.00 in0.0 mm 0.00 in0.0 mm 0.00 in0.0 mm
12:20 AM 41.7°F5.4°C 39.8°F4.3°C 93% 0.2 mph SSE0.3 kmh SSE 0.9 mph1.4 kmh 29.85 in1010.8 mb 0.00 in0.0 mm 0.00 in0.0 mm 0.00 in0.0 mm
12:15 AM 41.7°F5.4°C 39.8°F4.3°C 93% Calm Calm -- 29.85 in1010.8 mb 0.00 in0.0 mm 0.00 in0.0 mm 0.00 in0.0 mm
12:10 AM 41.7°F5.4°C 39.8°F4.3°C 93% Calm Calm -- 29.84 in1010.5 mb 0.00 in0.0 mm 0.00 in0.0 mm 0.00 in0.0 mm
12:05 AM 41.7°F5.4°C 39.8°F4.3°C 93% Calm Calm -- 29.84 in1010.5 mb 0.00 in0.0 mm 0.00 in0.0 mm 0.00 in0.0 mm
12:00 AM 41.7°F5.4°C 39.8°F4.3°C 93% Calm Calm -- 29.85 in1010.8 mb 0.00 in0.0 mm 0.00 in0.0 mm 0.00 in0.0 mm